Time;durP1;ratioP1;P1;durP2;ratioP2;P2;SDS_P1;SDS_P2;PMS_P1;PMS_P2;Temp;Humidity;BMP_temperature;BMP_pressure;BME280_temperature;BME280_humidity;BME280_pressure;Samples;Min_cycle;Max_cycle;Signal;HPM_P1;HPM_P2
2023/12/16 00:00:33;;;;;;;18.00;13.50;;;;;;;8.91;100.00;100397.88;4062198;29;20203;-93
2023/12/16 00:02:39;;;;;;;22.38;13.25;;;;;;;8.92;100.00;100396.16;4077819;29;20637;-91
2023/12/16 00:04:46;;;;;;;17.08;12.82;;;;;;;8.91;100.00;100397.03;4074903;29;20214;-90
2023/12/16 00:06:52;;;;;;;24.00;15.32;;;;;;;8.91;100.00;100394.44;4077638;29;20684;-95
2023/12/16 00:08:55;;;;;;;20.40;14.45;;;;;;;8.92;100.00;100403.03;4097528;28;20298;-96
2023/12/16 00:11:00;;;;;;;21.75;14.18;;;;;;;8.90;100.00;100401.38;4079976;29;20233;-95
2023/12/16 00:13:05;;;;;;;19.60;13.65;;;;;;;8.92;100.00;100404.78;4079909;29;20274;-94
2023/12/16 00:15:11;;;;;;;17.95;13.60;;;;;;;8.91;100.00;100407.44;4058782;29;20302;-95
2023/12/16 00:17:16;;;;;;;18.50;13.85;;;;;;;8.92;100.00;100403.03;4097701;28;20296;-94
2023/12/16 00:19:26;;;;;;;18.20;12.57;;;;;;;8.93;100.00;100407.34;4082132;29;20672;-94
2023/12/16 00:21:32;;;;;;;21.92;14.32;;;;;;;8.93;100.00;100401.31;4075581;29;20198;-94
2023/12/16 00:23:39;;;;;;;18.45;14.40;;;;;;;8.93;100.00;100406.50;4064786;29;20250;-92
2023/12/16 00:25:44;;;;;;;19.50;14.10;;;;;;;8.93;100.00;100409.13;4074507;29;20250;-94
2023/12/16 00:27:53;;;;;;;19.20;13.73;;;;;;;8.92;100.00;100393.53;4089542;29;20267;-93
2023/12/16 00:30:08;;;;;;;19.63;14.45;;;;;;;8.92;100.00;100390.03;4070036;29;20645;-93
2023/12/16 00:32:12;;;;;;;20.75;16.00;;;;;;;8.94;100.00;100403.00;4093333;28;20347;-94
2023/12/16 00:34:33;;;;;;;19.35;13.30;;;;;;;8.95;100.00;100407.31;4091239;28;20212;-94
2023/12/16 00:36:41;;;;;;;18.40;13.38;;;;;;;8.95;100.00;100408.16;4064060;29;20202;-94
2023/12/16 00:38:47;;;;;;;19.55;13.63;;;;;;;8.93;100.00;100403.91;4080109;29;20242;-94
2023/12/16 00:40:51;;;;;;;17.77;13.50;;;;;;;8.95;100.00;100412.53;4097002;28;20257;-94
2023/12/16 00:47:31;;;;;;;17.70;12.63;;;;;;;8.94;100.00;100414.28;4078204;29;20709;-94
2023/12/16 00:49:35;;;;;;;16.40;12.60;;;;;;;8.91;100.00;100426.50;4076202;29;20997;-94
2023/12/16 00:51:40;;;;;;;18.58;13.05;;;;;;;8.87;100.00;100424.88;4079048;29;20719;-94
2023/12/16 00:53:44;;;;;;;20.88;13.45;;;;;;;8.90;100.00;100431.72;4082917;29;20234;-94
2023/12/16 00:55:51;;;;;;;21.27;15.55;;;;;;;8.89;100.00;100427.44;4062839;29;20619;-94
2023/12/16 00:58:03;;;;;;;21.80;14.85;;;;;;;8.90;100.00;100429.13;4078615;29;20684;-93
2023/12/16 01:00:27;;;;;;;19.20;14.25;;;;;;;8.89;100.00;100432.66;4078084;29;20210;-95
2023/12/16 01:02:34;;;;;;;23.00;14.07;;;;;;;8.88;100.00;100441.34;4084361;29;20229;-95
2023/12/16 01:04:39;;;;;;;19.10;14.48;;;;;;;8.90;100.00;100449.94;4084762;29;20205;-94
2023/12/16 01:06:49;;;;;;;20.40;14.68;;;;;;;8.90;100.00;100455.16;4081905;29;20233;-93
2023/12/16 01:08:54;;;;;;;17.38;13.50;;;;;;;8.90;100.00;100452.53;4077834;29;20218;-93
2023/12/16 01:11:01;;;;;;;16.60;12.97;;;;;;;8.90;100.00;100455.16;4067986;29;20697;-92
2023/12/16 01:13:11;;;;;;;16.50;13.60;;;;;;;8.90;100.00;100450.81;4081776;29;20759;-93
2023/12/16 01:15:17;;;;;;;19.00;13.98;;;;;;;8.92;100.00;100454.22;4092826;28;20205;-91
2023/12/16 01:17:35;;;;;;;19.42;14.45;;;;;;;8.92;100.00;100436.03;4075861;29;20299;-92
2023/12/16 01:19:40;;;;;;;21.08;13.90;;;;;;;8.92;100.00;100432.56;4078978;29;20230;-93
2023/12/16 01:21:55;;;;;;;22.27;13.82;;;;;;;8.91;100.00;100425.66;4074890;29;20234;-93
2023/12/16 01:24:00;;;;;;;20.03;13.57;;;;;;;8.90;100.00;100434.34;4075487;29;20736;-92
2023/12/16 01:26:08;;;;;;;19.00;13.48;;;;;;;8.90;100.00;100434.34;4075871;29;21266;-92
2023/12/16 01:28:16;;;;;;;18.80;13.38;;;;;;;8.90;100.00;100456.03;4091832;28;20211;-93
2023/12/16 01:30:24;;;;;;;20.80;14.70;;;;;;;8.91;100.00;100459.47;4064952;29;20693;-93
2023/12/16 01:32:37;;;;;;;20.30;13.70;;;;;;;8.92;100.00;100451.63;4082459;29;20664;-93
2023/12/16 01:34:41;;;;;;;21.70;14.82;;;;;;;8.92;100.00;100446.44;4064543;29;20273;-93
2023/12/16 01:36:45;;;;;;;19.65;14.35;;;;;;;8.92;100.00;100442.06;4077511;29;20218;-93
2023/12/16 01:38:51;;;;;;;17.92;13.85;;;;;;;8.92;100.00;100437.78;4064797;29;20761;-91
2023/12/16 01:40:59;;;;;;;21.35;14.98;;;;;;;8.91;100.00;100434.28;4093829;28;20309;-92
2023/12/16 01:43:23;;;;;;;18.92;13.73;;;;;;;8.92;100.00;100437.78;4077019;29;20564;-92
2023/12/16 01:45:47;;;;;;;24.30;14.50;;;;;;;8.93;100.00;100445.53;4084835;29;20289;-93
2023/12/16 01:48:11;;;;;;;23.02;14.38;;;;;;;8.94;100.00;100445.50;4077119;29;20198;-93
2023/12/16 01:50:35;;;;;;;17.90;14.25;;;;;;;8.93;100.00;100455.97;4078560;29;20325;-93
2023/12/16 01:52:58;;;;;;;22.55;15.90;;;;;;;8.92;100.00;100449.88;4089036;28;20268;-93
2023/12/16 01:55:02;;;;;;;21.88;14.65;;;;;;;8.92;100.00;100455.06;4080392;29;20226;-92
2023/12/16 01:57:05;;;;;;;20.77;15.20;;;;;;;8.90;100.00;100445.63;4092285;28;20206;-92
2023/12/16 01:59:10;;;;;;;20.70;14.60;;;;;;;8.91;100.00;100451.66;4076239;29;20285;-93
2023/12/16 02:01:13;;;;;;;20.95;15.18;;;;;;;8.93;100.00;100458.56;4079913;29;20292;-92
2023/12/16 02:03:19;;;;;;;17.70;13.35;;;;;;;8.92;100.00;100456.00;4090372;28;20216;-92
2023/12/16 02:05:23;;;;;;;20.30;14.18;;;;;;;8.90;100.00;100450.81;4090034;28;20245;-92
2023/12/16 02:07:26;;;;;;;18.92;14.20;;;;;;;8.91;100.00;100462.06;4059406;29;20310;-94
2023/12/16 02:09:29;;;;;;;18.98;14.73;;;;;;;8.90;100.00;100458.63;4079621;29;20209;-92
2023/12/16 02:11:32;;;;;;;20.42;14.32;;;;;;;8.92;100.00;100458.59;4076911;29;20238;-93
2023/12/16 02:13:35;;;;;;;18.20;12.95;;;;;;;8.92;100.00;100454.22;4059484;29;20200;-92
2023/12/16 02:15:40;;;;;;;17.98;13.43;;;;;;;8.91;100.00;100452.50;4055749;29;20662;-93
2023/12/16 02:17:42;;;;;;;17.35;13.90;;;;;;;8.91;100.00;100462.91;4062922;29;20213;-93
2023/12/16 02:19:47;;;;;;;21.45;14.25;;;;;;;8.93;100.00;100472.41;4081373;29;20691;-93
2023/12/16 02:21:50;;;;;;;22.38;14.88;;;;;;;8.92;100.00;100468.09;4091364;28;20213;-93
2023/12/16 02:23:55;;;;;;;21.10;14.15;;;;;;;8.92;100.00;100460.28;4077741;29;20286;-93
2023/12/16 02:26:00;;;;;;;19.92;14.10;;;;;;;8.92;100.00;100464.66;4077604;29;20297;-92
2023/12/16 02:28:04;;;;;;;18.83;13.90;;;;;;;8.92;100.00;100468.09;4072607;29;20712;-93
2023/12/16 02:30:09;;;;;;;24.00;15.00;;;;;;;8.91;100.00;100464.69;4076609;29;20719;-93
2023/12/16 02:32:15;;;;;;;20.02;14.40;;;;;;;8.90;100.00;100465.56;4060359;29;20756;-91
2023/12/16 02:34:18;;;;;;;21.88;14.60;;;;;;;8.88;100.00;100465.59;4076806;29;20230;-92
2023/12/16 02:36:21;;;;;;;19.25;13.75;;;;;;;8.88;100.00;100469.94;4081144;29;20297;-92
2023/12/16 02:38:24;;;;;;;20.40;13.88;;;;;;;8.88;100.00;100459.53;4073211;29;20305;-93
2023/12/16 02:40:29;;;;;;;18.17;13.55;;;;;;;8.89;100.00;100462.13;4072224;29;20219;-92
2023/12/16 02:42:32;;;;;;;19.75;14.70;;;;;;;8.90;100.00;100462.97;4060527;29;20206;-92
2023/12/16 02:44:35;;;;;;;19.48;14.77;;;;;;;8.89;100.00;100453.47;4071193;29;20310;-90
2023/12/16 02:46:38;;;;;;;20.27;14.82;;;;;;;8.88;100.00;100451.75;4074089;29;20248;-93
2023/12/16 02:48:41;;;;;;;19.50;14.40;;;;;;;8.90;100.00;100455.16;4092670;28;20240;-93
2023/12/16 02:50:44;;;;;;;19.02;14.52;;;;;;;8.88;100.00;100454.34;4094600;28;20208;-92
2023/12/16 02:52:47;;;;;;;20.38;15.43;;;;;;;8.89;100.00;100458.66;4076788;29;20206;-92
2023/12/16 02:54:50;;;;;;;20.95;15.77;;;;;;;8.88;100.00;100456.94;4070714;29;20210;-92
2023/12/16 02:56:55;;;;;;;18.55;15.07;;;;;;;8.87;100.00;100460.44;4081055;29;20265;-92
2023/12/16 02:58:58;;;;;;;23.58;15.23;;;;;;;8.85;100.00;100457.00;4080992;29;20214;-92
2023/12/16 03:01:01;;;;;;;18.83;14.70;;;;;;;8.85;100.00;100462.22;4073130;29;20264;-93
2023/12/16 03:03:04;;;;;;;24.20;15.52;;;;;;;8.86;100.00;100456.13;4091091;28;20298;-93
2023/12/16 03:05:08;;;;;;;20.65;14.38;;;;;;;8.86;100.00;100463.94;4073681;29;20629;-93
2023/12/16 03:07:11;;;;;;;19.88;15.02;;;;;;;8.84;100.00;100456.16;4092772;28;20208;-92
2023/12/16 03:09:14;;;;;;;22.08;15.80;;;;;;;8.84;100.00;100461.38;4072426;29;20253;-91
2023/12/16 03:11:18;;;;;;;19.50;14.60;;;;;;;8.84;100.00;100466.56;4063130;29;20670;-90
2023/12/16 03:13:22;;;;;;;20.20;15.48;;;;;;;8.85;100.00;100462.22;4085501;28;20199;-91
2023/12/16 03:15:25;;;;;;;22.00;15.35;;;;;;;8.84;100.00;100468.31;4075358;29;20206;-92
2023/12/16 03:17:29;;;;;;;20.88;15.15;;;;;;;8.83;100.00;100464.84;4088488;29;20246;-92
2023/12/16 03:19:32;;;;;;;23.10;16.52;;;;;;;8.83;100.00;100464.00;4077822;29;20206;-92
2023/12/16 03:21:34;;;;;;;24.38;15.88;;;;;;;8.83;100.00;100466.63;4064586;29;20249;-92
2023/12/16 03:23:37;;;;;;;21.27;15.30;;;;;;;8.83;100.00;100470.06;4089120;28;20731;-92
2023/12/16 03:25:42;;;;;;;19.38;15.50;;;;;;;8.84;100.00;100471.78;4075349;29;20221;-91
2023/12/16 03:27:46;;;;;;;20.88;14.80;;;;;;;8.85;100.00;100475.22;4087818;28;20237;-92
2023/12/16 03:29:51;;;;;;;24.98;16.02;;;;;;;8.85;100.00;100473.47;4076011;29;20218;-92
2023/12/16 03:31:55;;;;;;;21.48;16.02;;;;;;;8.86;100.00;100477.78;4092890;28;20859;-92
2023/12/16 03:33:57;;;;;;;21.85;15.32;;;;;;;8.87;100.00;100484.72;4089581;28;20221;-92
2023/12/16 03:36:00;;;;;;;22.67;16.13;;;;;;;8.89;100.00;100476.88;4089611;28;20206;-93
2023/12/16 03:38:04;;;;;;;18.85;14.55;;;;;;;8.89;100.00;100482.09;4090344;28;20220;-92
2023/12/16 03:40:08;;;;;;;21.58;13.88;;;;;;;8.87;100.00;100483.84;4077527;29;20226;-92
2023/12/16 03:42:10;;;;;;;19.08;14.40;;;;;;;8.85;100.00;100475.22;4060581;29;20570;-93
2023/12/16 03:44:14;;;;;;;19.48;14.45;;;;;;;8.84;100.00;100465.69;4069053;29;20206;-92
2023/12/16 03:46:18;;;;;;;21.90;14.80;;;;;;;8.83;100.00;100470.06;4076065;29;20207;-93
2023/12/16 03:48:21;;;;;;;21.50;14.30;;;;;;;8.84;100.00;100463.09;4078996;29;20264;-92
2023/12/16 03:50:24;;;;;;;21.60;15.38;;;;;;;8.82;100.00;100457.09;4060120;29;20635;-92
2023/12/16 03:52:27;;;;;;;19.58;15.52;;;;;;;8.83;100.00;100462.25;4060273;29;20668;-93
2023/12/16 03:54:30;;;;;;;21.40;15.18;;;;;;;8.85;100.00;100470.03;4071914;29;20202;-93
2023/12/16 03:56:34;;;;;;;18.20;13.48;;;;;;;8.85;100.00;100472.63;4079361;29;20218;-92
2023/12/16 03:58:37;;;;;;;25.37;14.40;;;;;;;8.85;100.00;100470.88;4064673;29;20203;-93
2023/12/16 04:00:40;;;;;;;20.38;15.20;;;;;;;8.86;100.00;100474.34;4075288;29;20666;-92
2023/12/16 04:02:45;;;;;;;18.85;14.65;;;;;;;8.88;100.00;100475.16;4074525;29;20269;-93
2023/12/16 04:04:48;;;;;;;18.50;14.25;;;;;;;8.88;100.00;100477.75;4073206;29;20207;-92
2023/12/16 04:06:51;;;;;;;21.50;15.63;;;;;;;8.88;100.00;100477.75;4074297;29;20634;-91
2023/12/16 04:08:53;;;;;;;25.02;15.45;;;;;;;8.88;100.00;100482.97;4090513;28;20202;-93
2023/12/16 04:10:57;;;;;;;20.20;14.93;;;;;;;8.86;100.00;100483.00;4072765;29;20318;-92
2023/12/16 04:13:00;;;;;;;20.02;15.35;;;;;;;8.85;100.00;100475.22;4071651;29;20259;-93
2023/12/16 04:15:03;;;;;;;19.92;14.40;;;;;;;8.83;100.00;100475.25;4076563;29;20214;-90
2023/12/16 04:17:07;;;;;;;21.40;15.65;;;;;;;8.85;100.00;100483.03;4071020;29;20218;-92
2023/12/16 04:19:13;;;;;;;21.15;15.30;;;;;;;8.81;100.00;100486.59;4075872;29;20672;-92
2023/12/16 04:21:16;;;;;;;20.52;15.00;;;;;;;8.82;100.00;100490.91;4077283;29;20279;-91
2023/12/16 04:23:19;;;;;;;21.50;13.75;;;;;;;8.83;100.00;100474.41;4072961;29;20300;-92
2023/12/16 04:25:23;;;;;;;19.27;15.10;;;;;;;8.82;100.00;100481.34;4069011;29;20222;-93
2023/12/16 04:27:26;;;;;;;20.05;14.85;;;;;;;8.84;100.00;100483.91;4058197;29;20219;-92
2023/12/16 04:29:38;;;;;;;18.40;14.00;;;;;;;8.85;100.00;100486.47;4073532;29;20245;-91
2023/12/16 04:31:41;;;;;;;19.17;14.30;;;;;;;8.84;100.00;100481.31;4088660;29;22053;-91
2023/12/16 04:33:45;;;;;;;17.10;13.10;;;;;;;8.83;100.00;100484.81;4072371;29;20210;-93
2023/12/16 04:35:49;;;;;;;20.58;14.00;;;;;;;8.85;100.00;100488.25;4076886;29;20305;-92
2023/12/16 04:37:52;;;;;;;21.13;14.20;;;;;;;8.85;100.00;100488.25;4078472;29;20649;-92
2023/12/16 04:39:55;;;;;;;21.47;14.10;;;;;;;8.89;100.00;100492.50;4065677;29;20213;-91
2023/12/16 04:41:59;;;;;;;17.95;14.23;;;;;;;8.89;100.00;100484.69;4066957;29;20657;-93
2023/12/16 04:44:02;;;;;;;20.10;15.18;;;;;;;8.90;100.00;100487.25;4062452;29;20214;-92
2023/12/16 04:46:05;;;;;;;21.08;14.65;;;;;;;8.90;100.00;100487.25;4072681;29;20217;-92
2023/12/16 04:48:08;;;;;;;19.83;14.70;;;;;;;8.93;100.00;100487.19;4070393;29;20689;-93
2023/12/16 04:50:12;;;;;;;21.00;14.30;;;;;;;8.93;100.00;100488.03;4080480;29;20228;-92
2023/12/16 04:52:17;;;;;;;21.00;14.20;;;;;;;8.92;100.00;100481.09;4081650;29;20301;-92
2023/12/16 04:54:21;;;;;;;27.23;15.77;;;;;;;8.93;100.00;100481.97;4071505;29;20642;-92
2023/12/16 04:56:24;;;;;;;17.88;13.30;;;;;;;8.93;100.00;100479.38;4077984;29;20203;-92
2023/12/16 04:58:29;;;;;;;16.85;12.88;;;;;;;8.92;100.00;100481.09;4062967;29;20209;-91
2023/12/16 05:00:32;;;;;;;19.75;14.48;;;;;;;8.92;100.00;100476.81;4079965;29;20309;-93
2023/12/16 05:02:35;;;;;;;17.48;13.18;;;;;;;8.89;100.00;100477.72;4074559;29;20202;-92
2023/12/16 05:04:38;;;;;;;22.00;14.88;;;;;;;8.88;100.00;100478.59;4092637;28;20233;-93
2023/12/16 05:06:41;;;;;;;18.90;14.40;;;;;;;8.89;100.00;100488.13;4090818;28;20242;-92
2023/12/16 05:08:46;;;;;;;20.00;14.80;;;;;;;8.89;100.00;100482.09;4088925;28;20596;-93
2023/12/16 05:10:50;;;;;;;21.13;13.75;;;;;;;8.87;100.00;100483.84;4093787;28;20209;-92
2023/12/16 05:12:53;;;;;;;20.90;14.18;;;;;;;8.87;100.00;100486.44;4092302;28;20206;-91
2023/12/16 05:14:56;;;;;;;19.40;14.02;;;;;;;8.89;100.00;100497.69;4075413;29;20612;-90
2023/12/16 05:17:00;;;;;;;22.90;15.23;;;;;;;8.90;100.00;100496.78;4073910;29;20219;-91
2023/12/16 05:19:03;;;;;;;22.90;14.85;;;;;;;8.91;100.00;100501.94;4077250;29;20213;-92
2023/12/16 05:21:07;;;;;;;21.35;14.65;;;;;;;8.91;100.00;100498.50;4059572;29;20237;-92
2023/12/16 05:23:09;;;;;;;20.02;12.52;;;;;;;8.92;100.00;100502.81;4075037;29;20207;-91
2023/12/16 05:25:14;;;;;;;20.15;14.30;;;;;;;8.92;100.00;100498.47;4055906;29;20785;-92
2023/12/16 05:27:16;;;;;;;19.15;14.10;;;;;;;8.94;100.00;100501.88;4074484;29;20677;-91
2023/12/16 05:29:19;;;;;;;20.45;14.05;;;;;;;8.93;100.00;100495.84;4066803;29;20674;-92
2023/12/16 05:31:22;;;;;;;20.40;14.00;;;;;;;8.94;100.00;100505.38;4074491;29;20326;-92
2023/12/16 05:33:28;;;;;;;20.48;14.40;;;;;;;8.93;100.00;100503.63;4075148;29;20206;-93
2023/12/16 05:35:31;;;;;;;17.90;13.57;;;;;;;8.91;100.00;100498.50;4093503;28;20209;-92
2023/12/16 05:37:33;;;;;;;18.75;14.40;;;;;;;8.89;100.00;100500.28;4061538;29;21269;-92
2023/12/16 05:39:37;;;;;;;20.35;14.27;;;;;;;8.89;100.00;100487.28;4057919;29;20306;-93
2023/12/16 05:41:41;;;;;;;18.58;13.68;;;;;;;8.88;100.00;100493.38;4076555;29;20222;-92
2023/12/16 05:43:44;;;;;;;21.00;15.30;;;;;;;8.88;100.00;100498.56;4075114;29;20305;-92
2023/12/16 05:45:48;;;;;;;20.17;14.82;;;;;;;8.90;100.00;100502.00;4096816;28;20204;-91
2023/12/16 05:47:51;;;;;;;23.73;15.33;;;;;;;8.90;100.00;100491.56;4090315;28;20207;-90
2023/12/16 05:49:55;;;;;;;21.55;15.38;;;;;;;8.89;100.00;100495.94;4090541;29;20628;-93
2023/12/16 05:51:58;;;;;;;20.73;15.50;;;;;;;8.92;100.00;100497.63;4088094;28;20779;-91
2023/12/16 05:54:01;;;;;;;19.05;13.55;;;;;;;8.88;100.00;100499.41;4073550;29;20662;-91
2023/12/16 05:56:06;;;;;;;17.65;13.13;;;;;;;8.90;100.00;100504.59;4088712;28;20693;-92
2023/12/16 05:58:11;;;;;;;18.15;14.20;;;;;;;8.87;100.00;100492.53;4072137;29;20206;-92
2023/12/16 06:00:15;;;;;;;34.50;17.07;;;;;;;8.90;100.00;100496.78;4081586;29;20215;-92
2023/12/16 06:02:19;;;;;;;19.08;15.07;;;;;;;8.90;100.00;100491.56;4074716;29;21108;-92
2023/12/16 06:04:22;;;;;;;20.33;14.50;;;;;;;8.91;100.00;100509.75;4072152;29;20767;-90
2023/12/16 06:06:25;;;;;;;19.30;14.05;;;;;;;8.89;100.00;100515.91;4072441;29;20217;-92
2023/12/16 06:08:29;;;;;;;18.40;14.05;;;;;;;8.89;100.00;100515.91;4067097;29;20214;-92
2023/12/16 06:10:32;;;;;;;18.63;14.18;;;;;;;8.88;100.00;100515.03;4076542;29;20221;-91
2023/12/16 06:12:34;;;;;;;19.75;14.80;;;;;;;8.89;100.00;100515.91;4094215;28;20233;-92
2023/12/16 06:14:39;;;;;;;21.23;15.18;;;;;;;8.87;100.00;100517.66;4075047;28;20234;-92
2023/12/16 06:16:42;;;;;;;19.60;13.48;;;;;;;8.87;100.00;100517.66;4065908;29;20245;-91
2023/12/16 06:18:45;;;;;;;16.50;12.65;;;;;;;8.84;100.00;100512.53;4076968;28;20210;-91
2023/12/16 06:20:49;;;;;;;17.02;13.00;;;;;;;8.83;100.00;100516.06;4063275;29;20218;-92
2023/12/16 06:22:52;;;;;;;19.75;13.13;;;;;;;8.82;100.00;100514.31;4086906;28;20240;-92
2023/12/16 06:24:57;;;;;;;19.23;13.70;;;;;;;8.79;100.00;100510.03;4089443;28;20594;-92
2023/12/16 06:27:01;;;;;;;21.05;14.80;;;;;;;8.76;100.00;100517.06;4080477;29;20209;-92
2023/12/16 06:29:04;;;;;;;16.75;13.27;;;;;;;8.75;100.00;100513.63;4074698;29;20696;-91
2023/12/16 06:31:15;;;;;;;19.75;14.77;;;;;;;8.77;100.00;100521.38;4061579;29;20262;-91
2023/12/16 06:33:18;;;;;;;21.88;16.10;;;;;;;8.78;100.00;100523.06;4062725;29;20673;-91
2023/12/16 06:35:22;;;;;;;22.48;16.40;;;;;;;8.79;100.00;100530.84;4086244;28;20220;-90
2023/12/16 06:37:24;;;;;;;21.00;15.05;;;;;;;8.81;99.91;100523.00;4073401;29;20237;-92
2023/12/16 06:39:27;;;;;;;21.07;15.40;;;;;;;8.81;100.00;100530.81;4062445;29;20203;-92
2023/12/16 06:41:30;;;;;;;19.85;13.77;;;;;;;8.82;99.71;100529.94;4074909;29;20634;-92
2023/12/16 06:43:33;;;;;;;22.10;14.68;;;;;;;8.82;100.00;100519.53;4073669;29;20225;-92
2023/12/16 06:45:38;;;;;;;23.92;16.50;;;;;;;8.82;99.96;100517.78;4073023;29;20262;-92
2023/12/16 06:47:41;;;;;;;18.63;14.73;;;;;;;8.83;100.00;100519.50;4059500;29;20223;-92
2023/12/16 06:49:45;;;;;;;20.23;15.30;;;;;;;8.83;99.38;100522.09;4074228;29;20241;-93
2023/12/16 06:51:48;;;;;;;20.42;15.13;;;;;;;8.83;100.00;100522.09;4080814;29;20609;-92
2023/12/16 06:53:51;;;;;;;19.50;14.75;;;;;;;8.83;99.66;100524.69;4076479;29;20699;-91
2023/12/16 06:55:53;;;;;;;18.77;14.32;;;;;;;8.81;100.00;100517.81;4071739;29;20299;-92
2023/12/16 06:57:57;;;;;;;20.80;14.60;;;;;;;8.79;99.99;100517.00;4073301;29;20300;-90
2023/12/16 06:59:59;;;;;;;20.65;15.35;;;;;;;8.76;100.00;100522.25;4091110;28;20216;-92
2023/12/16 07:02:02;;;;;;;23.00;15.07;;;;;;;8.75;100.00;100528.34;4090129;28;20260;-92
2023/12/16 07:04:07;;;;;;;17.83;13.10;;;;;;;8.76;99.70;100527.47;4090289;28;20293;-91
2023/12/16 07:06:10;;;;;;;18.33;13.40;;;;;;;8.75;100.00;100524.03;4087417;29;20233;-92
2023/12/16 07:08:13;;;;;;;20.25;14.60;;;;;;;8.71;100.00;100519.75;4073696;29;20209;-93
2023/12/16 07:10:17;;;;;;;18.70;13.60;;;;;;;8.73;100.00;100519.72;4081267;29;20665;-92
2023/12/16 07:12:20;;;;;;;22.35;14.30;;;;;;;8.73;99.26;100525.78;4063134;29;20254;-92
2023/12/16 07:14:23;;;;;;;19.10;13.70;;;;;;;8.73;100.00;100525.78;4074097;29;20211;-91
2023/12/16 07:16:26;;;;;;;20.92;14.93;;;;;;;8.74;100.00;100531.84;4082013;29;20211;-92
2023/12/16 07:18:29;;;;;;;20.92;14.25;;;;;;;8.75;100.00;100534.44;4089273;28;20572;-93
2023/12/16 07:20:34;;;;;;;23.88;16.13;;;;;;;8.75;100.00;100528.34;4061006;29;20270;-91
2023/12/16 07:22:37;;;;;;;22.45;16.83;;;;;;;8.73;100.00;100536.19;4061371;29;20231;-92
2023/12/16 07:24:40;;;;;;;23.73;15.47;;;;;;;8.73;100.00;100536.19;4061279;29;20230;-92
2023/12/16 07:26:43;;;;;;;22.75;15.50;;;;;;;8.74;100.00;100534.47;4061649;29;21587;-92
2023/12/16 07:28:47;;;;;;;21.00;16.30;;;;;;;8.70;100.00;100535.41;4092479;28;20221;-92
2023/12/16 07:30:50;;;;;;;19.88;14.93;;;;;;;8.66;100.00;100533.75;4071667;29;20570;-92
2023/12/16 07:32:56;;;;;;;19.17;13.60;;;;;;;8.64;100.00;100532.94;4096203;29;20227;-91
2023/12/16 07:35:00;;;;;;;19.88;14.02;;;;;;;8.62;99.49;100535.56;4086486;29;20213;-91
2023/12/16 07:37:05;;;;;;;19.77;13.95;;;;;;;8.58;100.00;100544.31;4077484;29;20282;-92
2023/12/16 07:39:09;;;;;;;22.35;15.52;;;;;;;8.56;100.00;100540.91;4064572;29;20677;-91
2023/12/16 07:41:12;;;;;;;22.20;14.73;;;;;;;8.53;100.00;100542.72;4070107;29;20249;-91
2023/12/16 07:43:14;;;;;;;21.10;14.75;;;;;;;8.55;100.00;100546.13;4075757;29;20607;-91
2023/12/16 07:45:18;;;;;;;22.30;16.08;;;;;;;8.56;100.00;100551.31;4076493;29;20231;-91
2023/12/16 07:47:21;;;;;;;22.80;15.63;;;;;;;8.58;100.00;100562.53;4076010;29;20205;-91
2023/12/16 07:49:25;;;;;;;24.67;16.45;;;;;;;8.59;100.00;100558.19;4071679;29;20260;-92
2023/12/16 07:51:28;;;;;;;20.05;15.02;;;;;;;8.56;100.00;100559.09;4061425;29;20211;-92
2023/12/16 07:53:33;;;;;;;22.77;15.68;;;;;;;8.60;100.00;100565.09;4057772;29;20245;-93
2023/12/16 07:55:35;;;;;;;23.45;16.50;;;;;;;8.58;100.00;100559.06;4057044;29;20267;-93
2023/12/16 07:57:39;;;;;;;23.35;14.90;;;;;;;8.63;100.00;100567.63;4059846;29;20217;-94
2023/12/16 07:59:42;;;;;;;21.00;14.93;;;;;;;8.65;100.00;100571.06;4077185;29;20293;-92
2023/12/16 08:01:49;;;;;;;23.52;16.05;;;;;;;8.70;100.00;100582.22;4076244;29;20198;-92
2023/12/16 08:03:53;;;;;;;23.52;15.77;;;;;;;8.71;100.00;100584.78;4078328;29;20226;-92
2023/12/16 08:05:56;;;;;;;24.92;15.43;;;;;;;8.73;100.00;100582.16;4074427;29;20214;-94
2023/12/16 08:07:59;;;;;;;22.77;16.33;;;;;;;8.76;100.00;100585.53;4093696;28;20228;-93
2023/12/16 08:10:05;;;;;;;23.10;15.82;;;;;;;8.77;100.00;100578.63;4073468;29;20310;-92
2023/12/16 08:12:08;;;;;;;24.23;16.42;;;;;;;8.81;100.00;100586.31;4079094;29;20205;-94
2023/12/16 08:14:12;;;;;;;23.48;16.65;;;;;;;8.84;100.00;100590.59;4059267;29;20207;-95
2023/12/16 08:16:16;;;;;;;25.00;18.27;;;;;;;8.86;100.00;100583.63;4073740;29;20784;-94
2023/12/16 08:18:19;;;;;;;26.77;19.85;;;;;;;8.87;100.00;100590.53;4066476;29;21143;-93
2023/12/16 08:20:24;;;;;;;25.92;19.60;;;;;;;8.88;100.00;100594.84;4080627;29;20746;-93
2023/12/16 08:22:28;;;;;;;27.25;20.38;;;;;;;8.88;100.00;100598.28;4083973;29;20213;-92
2023/12/16 08:24:32;;;;;;;28.60;20.30;;;;;;;8.90;100.00;100593.94;4064547;29;20235;-88
2023/12/16 08:26:37;;;;;;;24.83;17.40;;;;;;;8.94;100.00;100587.75;4080509;29;20617;-94
2023/12/16 08:28:41;;;;;;;22.35;16.80;;;;;;;8.97;100.00;100591.13;4088740;28;20894;-96
2023/12/16 08:30:46;;;;;;;24.65;17.02;;;;;;;8.99;100.00;100597.19;4094578;28;20296;-93
2023/12/16 08:32:50;;;;;;;25.30;19.42;;;;;;;9.00;100.00;100598.88;4092716;28;20325;-93
2023/12/16 08:34:53;;;;;;;37.53;24.90;;;;;;;9.01;100.00;100604.97;4095421;28;20210;-94
2023/12/16 08:36:57;;;;;;;24.35;17.70;;;;;;;8.98;100.00;100613.69;4096265;28;20298;-94
2023/12/16 08:39:01;;;;;;;24.10;17.58;;;;;;;8.99;100.00;100611.91;4079999;29;20619;-93
2023/12/16 08:41:07;;;;;;;25.15;16.90;;;;;;;8.99;100.00;100615.41;4065369;29;20298;-94
2023/12/16 08:43:11;;;;;;;23.10;16.73;;;;;;;9.00;100.00;100619.69;4078452;29;20226;-94
2023/12/16 08:45:14;;;;;;;22.20;15.67;;;;;;;9.01;100.00;100623.19;4076385;29;20215;-91
2023/12/16 08:47:18;;;;;;;24.30;16.70;;;;;;;9.03;100.00;100624.00;4074560;29;20641;-89
2023/12/16 08:49:21;;;;;;;24.27;17.25;;;;;;;9.06;100.00;100622.16;4093790;28;20602;-89
2023/12/16 08:51:25;;;;;;;21.58;15.85;;;;;;;9.07;100.00;100630.84;4060395;29;20207;-90
2023/12/16 08:53:27;;;;;;;26.90;17.17;;;;;;;9.04;100.00;100615.31;4080490;29;20198;-91
2023/12/16 08:55:31;;;;;;;28.75;19.15;;;;;;;9.08;100.00;100628.22;4061044;29;20668;-91
2023/12/16 08:57:34;;;;;;;25.98;17.55;;;;;;;9.10;100.00;100626.44;4065604;29;20207;-91
2023/12/16 08:59:38;;;;;;;26.42;17.65;;;;;;;9.11;100.00;100628.16;4065091;29;20203;-93
2023/12/16 09:01:42;;;;;;;25.85;18.08;;;;;;;9.15;100.00;100634.97;4081972;29;20231;-91
2023/12/16 09:03:45;;;;;;;24.98;17.00;;;;;;;9.18;100.00;100634.06;4068007;29;20253;-91
2023/12/16 09:05:48;;;;;;;23.70;17.40;;;;;;;9.20;100.00;100637.50;4084744;29;20206;-91
2023/12/16 09:07:51;;;;;;;23.95;16.80;;;;;;;9.21;100.00;100634.84;4079099;29;20648;-91
2023/12/16 09:09:55;;;;;;;25.05;18.10;;;;;;;9.23;100.00;100637.41;4082069;29;20203;-91
2023/12/16 09:11:58;;;;;;;27.42;19.50;;;;;;;9.25;100.00;100641.72;4092310;28;20308;-90
2023/12/16 09:14:01;;;;;;;24.93;18.00;;;;;;;9.26;100.00;100651.25;4079831;29;20222;-91
2023/12/16 09:16:06;;;;;;;26.02;19.35;;;;;;;9.27;100.00;100652.94;4077546;29;20701;-91
2023/12/16 09:18:10;;;;;;;27.80;18.43;;;;;;;9.27;100.00;100654.69;4080146;29;20230;-91
2023/12/16 09:20:14;;;;;;;24.17;17.67;;;;;;;9.26;100.00;100653.84;4082694;29;20637;-90
2023/12/16 09:22:19;;;;;;;24.17;17.42;;;;;;;9.27;100.00;100655.53;4081249;29;20792;-91
2023/12/16 09:24:21;;;;;;;25.00;17.55;;;;;;;9.28;100.00;100652.06;4078168;29;20288;-91
2023/12/16 09:26:25;;;;;;;23.77;16.80;;;;;;;9.28;100.00;100657.28;4086523;28;20223;-93
2023/12/16 09:28:27;;;;;;;26.35;17.30;;;;;;;9.29;100.00;100658.13;4060812;29;20635;-93
2023/12/16 09:30:31;;;;;;;25.25;17.85;;;;;;;9.29;100.00;100659.00;4090159;28;20563;-89